CSN9 weather

Baie-Comeau / Héli-Manicouagan Heliport
Baie-Comeau, Quebec, Canada

Public forecast

Using degrees Celsius for public forecast. Weather courtesy of forecast.io.

METAR (pilot weather report)

Closest report is Baie Comeau Airport, 5.1 nm (9.5 km) SE. Retrieved 2019/05/21 08:00 UTC (57 minutes ago):

CYBC 210800Z AUTO 08017G22KT 3SM -RA BR OVC003 05/04 A2960 RMK SLP026

TAF (pilot weather forecast)

Closest forecast is Baie Comeau Airport, 5.1 nm (9.5 km) SE. Retrieved 2019/05/21 08:00 UTC (57 minutes ago):

TAF CYBC 210738Z 2108/2120 08015G25KT 11/2SM -RA BR OVC003 TEMPO 2108/2118 6SM -RA BR BKN005 OVC015 BECMG 2108/2110 08018G28KT FM211800 06015G25KT 3SM -RA BR OVC005 TEMPO 2118/2120 6SM -RA BR FEW005 OVC010 RMK FCST BASED ON AUTO OBS. NXT FCST BY 211400Z